sensor_id;sensor_type;location;lat;lon;timestamp;temperature;humidity
33414;DHT22;60055;41.884;12.534;2022-10-14T00:01:06;17.50;99.90
33414;DHT22;60055;41.884;12.534;2022-10-14T00:03:32;17.50;99.90
33414;DHT22;60055;41.884;12.534;2022-10-14T00:05:58;17.50;99.90
33414;DHT22;60055;41.884;12.534;2022-10-14T00:08:24;17.50;99.90
33414;DHT22;60055;41.884;12.534;2022-10-14T00:10:50;17.50;99.90
33414;DHT22;60055;41.884;12.534;2022-10-14T00:13:17;17.40;99.90
33414;DHT22;60055;41.884;12.534;2022-10-14T00:15:43;17.40;99.90
33414;DHT22;60055;41.884;12.534;2022-10-14T00:18:09;17.40;99.90
33414;DHT22;60055;41.884;12.534;2022-10-14T00:20:35;17.40;99.90
33414;DHT22;60055;41.884;12.534;2022-10-14T00:23:01;17.40;99.90
33414;DHT22;60055;41.884;12.534;2022-10-14T00:25:27;17.40;99.90
33414;DHT22;60055;41.884;12.534;2022-10-14T00:27:54;17.40;99.90
33414;DHT22;60055;41.884;12.534;2022-10-14T00:30:19;17.30;99.90
33414;DHT22;60055;41.884;12.534;2022-10-14T00:32:46;17.30;99.90
33414;DHT22;60055;41.884;12.534;2022-10-14T00:35:14;17.30;99.90
33414;DHT22;60055;41.884;12.534;2022-10-14T00:37:40;17.30;99.90
33414;DHT22;60055;41.884;12.534;2022-10-14T00:40:06;17.30;99.90
33414;DHT22;60055;41.884;12.534;2022-10-14T00:42:35;17.20;99.90
33414;DHT22;60055;41.884;12.534;2022-10-14T00:45:11;17.30;99.90
33414;DHT22;60055;41.884;12.534;2022-10-14T00:47:38;17.20;99.90
33414;DHT22;60055;41.884;12.534;2022-10-14T00:50:11;17.30;99.90
33414;DHT22;60055;41.884;12.534;2022-10-14T00:52:38;17.30;99.90
33414;DHT22;60055;41.884;12.534;2022-10-14T00:55:12;17.30;99.90
33414;DHT22;60055;41.884;12.534;2022-10-14T00:57:41;17.30;99.90
33414;DHT22;60055;41.884;12.534;2022-10-14T01:00:18;17.20;99.90
33414;DHT22;60055;41.884;12.534;2022-10-14T01:02:45;17.20;99.90
33414;DHT22;60055;41.884;12.534;2022-10-14T01:05:14;17.20;99.90
33414;DHT22;60055;41.884;12.534;2022-10-14T01:08:02;17.20;99.90
33414;DHT22;60055;41.884;12.534;2022-10-14T01:10:39;17.10;99.90
33414;DHT22;60055;41.884;12.534;2022-10-14T01:13:32;17.20;99.90
33414;DHT22;60055;41.884;12.534;2022-10-14T01:16:27;17.20;99.90
33414;DHT22;60055;41.884;12.534;2022-10-14T01:22:20;17.00;99.90
33414;DHT22;60055;41.884;12.534;2022-10-14T01:27:51;17.10;99.90
33414;DHT22;60055;41.884;12.534;2022-10-14T01:30:24;17.00;99.90
33414;DHT22;60055;41.884;12.534;2022-10-14T01:33:05;17.00;99.90
33414;DHT22;60055;41.884;12.534;2022-10-14T01:35:49;17.00;99.90
33414;DHT22;60055;41.884;12.534;2022-10-14T01:38:26;17.00;99.90
33414;DHT22;60055;41.884;12.534;2022-10-14T01:41:12;17.00;99.90
33414;DHT22;60055;41.884;12.534;2022-10-14T01:43:43;17.00;99.90
33414;DHT22;60055;41.884;12.534;2022-10-14T01:46:12;16.90;99.90
33414;DHT22;60055;41.884;12.534;2022-10-14T01:48:46;16.90;99.90
33414;DHT22;60055;41.884;12.534;2022-10-14T01:51:16;17.00;99.90
33414;DHT22;60055;41.884;12.534;2022-10-14T01:53:50;17.00;99.90
33414;DHT22;60055;41.884;12.534;2022-10-14T01:56:19;17.00;99.90
33414;DHT22;60055;41.884;12.534;2022-10-14T01:58:45;17.00;99.90
33414;DHT22;60055;41.884;12.534;2022-10-14T02:01:12;17.00;99.90
33414;DHT22;60055;41.884;12.534;2022-10-14T02:03:43;17.00;99.90
33414;DHT22;60055;41.884;12.534;2022-10-14T02:06:26;17.00;99.90
33414;DHT22;60055;41.884;12.534;2022-10-14T02:12:34;16.80;99.90
33414;DHT22;60055;41.884;12.534;2022-10-14T02:15:30;16.90;99.90
33414;DHT22;60055;41.884;12.534;2022-10-14T02:18:05;16.90;99.90
33414;DHT22;60055;41.884;12.534;2022-10-14T02:23:45;16.90;99.90
33414;DHT22;60055;41.884;12.534;2022-10-14T02:26:14;16.90;99.90
33414;DHT22;60055;41.884;12.534;2022-10-14T02:28:43;17.00;99.90
33414;DHT22;60055;41.884;12.534;2022-10-14T02:31:13;16.90;99.90
33414;DHT22;60055;41.884;12.534;2022-10-14T02:33:43;16.80;99.90
33414;DHT22;60055;41.884;12.534;2022-10-14T02:36:12;16.70;99.90
33414;DHT22;60055;41.884;12.534;2022-10-14T02:38:43;16.70;99.90
33414;DHT22;60055;41.884;12.534;2022-10-14T02:41:13;16.70;99.90
33414;DHT22;60055;41.884;12.534;2022-10-14T02:43:40;16.80;99.90
33414;DHT22;60055;41.884;12.534;2022-10-14T02:46:07;16.80;99.90
33414;DHT22;60055;41.884;12.534;2022-10-14T02:48:34;16.80;99.90
33414;DHT22;60055;41.884;12.534;2022-10-14T02:51:01;16.90;99.90
33414;DHT22;60055;41.884;12.534;2022-10-14T02:53:28;16.90;99.90
33414;DHT22;60055;41.884;12.534;2022-10-14T02:55:55;16.80;99.90
33414;DHT22;60055;41.884;12.534;2022-10-14T02:58:21;16.80;99.90
33414;DHT22;60055;41.884;12.534;2022-10-14T03:00:48;16.70;99.90
33414;DHT22;60055;41.884;12.534;2022-10-14T03:03:14;16.60;99.90
33414;DHT22;60055;41.884;12.534;2022-10-14T03:05:41;16.60;99.90
33414;DHT22;60055;41.884;12.534;2022-10-14T03:08:07;16.70;99.90
33414;DHT22;60055;41.884;12.534;2022-10-14T03:10:33;16.70;99.90
33414;DHT22;60055;41.884;12.534;2022-10-14T03:12:59;16.50;99.90
33414;DHT22;60055;41.884;12.534;2022-10-14T03:15:26;16.50;99.90
33414;DHT22;60055;41.884;12.534;2022-10-14T03:17:56;16.50;99.90
33414;DHT22;60055;41.884;12.534;2022-10-14T03:20:22;16.50;99.90
33414;DHT22;60055;41.884;12.534;2022-10-14T03:22:48;16.60;99.90
33414;DHT22;60055;41.884;12.534;2022-10-14T03:25:16;16.60;99.90
33414;DHT22;60055;41.884;12.534;2022-10-14T03:27:45;16.50;99.90
33414;DHT22;60055;41.884;12.534;2022-10-14T03:30:13;16.60;99.90
33414;DHT22;60055;41.884;12.534;2022-10-14T03:32:41;16.50;99.90
33414;DHT22;60055;41.884;12.534;2022-10-14T03:35:08;16.50;99.90
33414;DHT22;60055;41.884;12.534;2022-10-14T03:37:35;16.40;99.90
33414;DHT22;60055;41.884;12.534;2022-10-14T03:40:01;16.30;99.90
33414;DHT22;60055;41.884;12.534;2022-10-14T03:42:27;16.40;99.90
33414;DHT22;60055;41.884;12.534;2022-10-14T03:44:52;16.30;99.90
33414;DHT22;60055;41.884;12.534;2022-10-14T03:47:18;16.30;99.90
33414;DHT22;60055;41.884;12.534;2022-10-14T03:49:44;16.30;99.90
33414;DHT22;60055;41.884;12.534;2022-10-14T03:52:10;16.30;99.90
33414;DHT22;60055;41.884;12.534;2022-10-14T03:54:37;16.20;99.90
33414;DHT22;60055;41.884;12.534;2022-10-14T03:57:04;16.10;99.90
33414;DHT22;60055;41.884;12.534;2022-10-14T03:59:29;16.10;99.90
33414;DHT22;60055;41.884;12.534;2022-10-14T04:01:56;16.20;99.90
33414;DHT22;60055;41.884;12.534;2022-10-14T04:04:21;16.20;99.90
33414;DHT22;60055;41.884;12.534;2022-10-14T04:06:47;16.10;99.90
33414;DHT22;60055;41.884;12.534;2022-10-14T04:09:13;16.20;99.90
33414;DHT22;60055;41.884;12.534;2022-10-14T04:12:13;16.00;99.90
33414;DHT22;60055;41.884;12.534;2022-10-14T04:14:42;16.00;99.90
33414;DHT22;60055;41.884;12.534;2022-10-14T04:17:08;16.00;99.90
33414;DHT22;60055;41.884;12.534;2022-10-14T04:19:34;16.10;99.90
33414;DHT22;60055;41.884;12.534;2022-10-14T04:22:00;15.90;99.90
33414;DHT22;60055;41.884;12.534;2022-10-14T04:24:25;15.90;99.90
33414;DHT22;60055;41.884;12.534;2022-10-14T04:26:53;15.80;99.90
33414;DHT22;60055;41.884;12.534;2022-10-14T04:29:18;15.70;99.90
33414;DHT22;60055;41.884;12.534;2022-10-14T04:31:44;15.70;99.90
33414;DHT22;60055;41.884;12.534;2022-10-14T04:34:13;15.70;99.90
33414;DHT22;60055;41.884;12.534;2022-10-14T04:36:39;15.70;99.90
33414;DHT22;60055;41.884;12.534;2022-10-14T04:39:05;15.60;99.90
33414;DHT22;60055;41.884;12.534;2022-10-14T04:41:31;15.70;99.90
33414;DHT22;60055;41.884;12.534;2022-10-14T04:44:03;15.70;99.90
33414;DHT22;60055;41.884;12.534;2022-10-14T04:46:29;15.80;99.90
33414;DHT22;60055;41.884;12.534;2022-10-14T04:48:56;15.80;99.90
33414;DHT22;60055;41.884;12.534;2022-10-14T04:51:38;15.70;99.90
33414;DHT22;60055;41.884;12.534;2022-10-14T04:54:05;16.00;99.90
33414;DHT22;60055;41.884;12.534;2022-10-14T04:56:39;16.10;99.90
33414;DHT22;60055;41.884;12.534;2022-10-14T04:59:06;15.90;99.90
33414;DHT22;60055;41.884;12.534;2022-10-14T05:01:34;15.90;99.90
33414;DHT22;60055;41.884;12.534;2022-10-14T05:04:01;16.20;99.90
33414;DHT22;60055;41.884;12.534;2022-10-14T05:06:28;16.20;99.90
33414;DHT22;60055;41.884;12.534;2022-10-14T05:08:55;16.20;99.90
33414;DHT22;60055;41.884;12.534;2022-10-14T05:11:25;16.30;99.90
33414;DHT22;60055;41.884;12.534;2022-10-14T05:13:53;16.30;99.90
33414;DHT22;60055;41.884;12.534;2022-10-14T05:16:19;16.50;99.90
33414;DHT22;60055;41.884;12.534;2022-10-14T05:18:44;16.90;99.90
33414;DHT22;60055;41.884;12.534;2022-10-14T05:21:12;16.70;99.90
33414;DHT22;60055;41.884;12.534;2022-10-14T05:23:38;16.20;99.90
33414;DHT22;60055;41.884;12.534;2022-10-14T05:26:07;16.10;99.90
33414;DHT22;60055;41.884;12.534;2022-10-14T05:28:36;16.30;99.90
33414;DHT22;60055;41.884;12.534;2022-10-14T05:31:04;16.10;99.90
33414;DHT22;60055;41.884;12.534;2022-10-14T05:33:31;15.90;99.90
33414;DHT22;60055;41.884;12.534;2022-10-14T05:35:59;15.70;99.90
33414;DHT22;60055;41.884;12.534;2022-10-14T05:38:24;15.80;99.90
33414;DHT22;60055;41.884;12.534;2022-10-14T05:40:59;15.90;99.90
33414;DHT22;60055;41.884;12.534;2022-10-14T05:43:25;16.00;99.90
33414;DHT22;60055;41.884;12.534;2022-10-14T05:45:52;16.00;99.90
33414;DHT22;60055;41.884;12.534;2022-10-14T05:48:27;15.90;99.90
33414;DHT22;60055;41.884;12.534;2022-10-14T05:50:55;15.90;99.90
33414;DHT22;60055;41.884;12.534;2022-10-14T05:53:28;16.00;99.90
33414;DHT22;60055;41.884;12.534;2022-10-14T05:56:02;16.10;99.90
33414;DHT22;60055;41.884;12.534;2022-10-14T05:58:28;16.20;99.90
33414;DHT22;60055;41.884;12.534;2022-10-14T06:00:58;16.30;99.90
33414;DHT22;60055;41.884;12.534;2022-10-14T06:03:28;16.20;99.90
33414;DHT22;60055;41.884;12.534;2022-10-14T06:05:56;16.10;99.90
33414;DHT22;60055;41.884;12.534;2022-10-14T06:08:27;16.20;99.90
33414;DHT22;60055;41.884;12.534;2022-10-14T06:10:53;16.30;99.90
33414;DHT22;60055;41.884;12.534;2022-10-14T06:13:21;16.30;99.90
33414;DHT22;60055;41.884;12.534;2022-10-14T06:15:47;16.20;99.90
33414;DHT22;60055;41.884;12.534;2022-10-14T06:18:22;16.10;99.90
33414;DHT22;60055;41.884;12.534;2022-10-14T06:21:17;16.10;99.90
33414;DHT22;60055;41.884;12.534;2022-10-14T06:24:01;16.20;99.90
33414;DHT22;60055;41.884;12.534;2022-10-14T06:26:31;16.40;99.90
33414;DHT22;60055;41.884;12.534;2022-10-14T06:28:57;16.50;99.90
33414;DHT22;60055;41.884;12.534;2022-10-14T06:31:37;16.40;99.90
33414;DHT22;60055;41.884;12.534;2022-10-14T06:34:21;16.50;99.90
33414;DHT22;60055;41.884;12.534;2022-10-14T06:44:09;16.40;99.90
33414;DHT22;60055;41.884;12.534;2022-10-14T06:50:58;17.00;99.90
33414;DHT22;60055;41.884;12.534;2022-10-14T06:53:56;17.00;99.90
33414;DHT22;60055;41.884;12.534;2022-10-14T07:06:42;17.60;99.90
33414;DHT22;60055;41.884;12.534;2022-10-14T07:13:16;18.10;99.90
33414;DHT22;60055;41.884;12.534;2022-10-14T07:16:00;18.20;99.90
33414;DHT22;60055;41.884;12.534;2022-10-14T07:18:28;18.70;99.90
33414;DHT22;60055;41.884;12.534;2022-10-14T07:24:37;18.80;99.90
33414;DHT22;60055;41.884;12.534;2022-10-14T07:27:09;18.80;99.90
33414;DHT22;60055;41.884;12.534;2022-10-14T07:29:48;18.90;99.90
33414;DHT22;60055;41.884;12.534;2022-10-14T07:32:16;19.00;99.90
33414;DHT22;60055;41.884;12.534;2022-10-14T07:34:44;19.20;99.90
33414;DHT22;60055;41.884;12.534;2022-10-14T07:37:11;19.30;99.90
33414;DHT22;60055;41.884;12.534;2022-10-14T07:39:40;19.20;99.90
33414;DHT22;60055;41.884;12.534;2022-10-14T07:42:12;19.20;99.90
33414;DHT22;60055;41.884;12.534;2022-10-14T07:44:42;19.20;99.90
33414;DHT22;60055;41.884;12.534;2022-10-14T07:47:15;19.20;99.90
33414;DHT22;60055;41.884;12.534;2022-10-14T07:49:50;19.40;99.90
33414;DHT22;60055;41.884;12.534;2022-10-14T08:01:24;19.90;99.90
33414;DHT22;60055;41.884;12.534;2022-10-14T08:03:58;19.90;99.90
33414;DHT22;60055;41.884;12.534;2022-10-14T08:06:28;19.90;99.90
33414;DHT22;60055;41.884;12.534;2022-10-14T08:11:48;20.00;99.90
33414;DHT22;60055;41.884;12.534;2022-10-14T08:14:14;20.10;99.90
33414;DHT22;60055;41.884;12.534;2022-10-14T08:16:41;20.40;99.90
33414;DHT22;60055;41.884;12.534;2022-10-14T08:19:28;20.30;99.90
33414;DHT22;60055;41.884;12.534;2022-10-14T08:21:59;20.20;99.90
33414;DHT22;60055;41.884;12.534;2022-10-14T08:24:26;20.30;99.90
33414;DHT22;60055;41.884;12.534;2022-10-14T08:26:56;20.50;99.90
33414;DHT22;60055;41.884;12.534;2022-10-14T08:29:23;20.50;99.90
33414;DHT22;60055;41.884;12.534;2022-10-14T08:31:53;20.50;99.90
33414;DHT22;60055;41.884;12.534;2022-10-14T08:34:36;20.10;99.90
33414;DHT22;60055;41.884;12.534;2022-10-14T08:37:03;20.10;99.90
33414;DHT22;60055;41.884;12.534;2022-10-14T08:39:49;20.70;99.90
33414;DHT22;60055;41.884;12.534;2022-10-14T08:42:34;20.70;99.90
33414;DHT22;60055;41.884;12.534;2022-10-14T08:45:34;20.70;99.90
33414;DHT22;60055;41.884;12.534;2022-10-14T08:51:33;20.90;99.90
33414;DHT22;60055;41.884;12.534;2022-10-14T08:54:14;20.80;99.90
33414;DHT22;60055;41.884;12.534;2022-10-14T08:56:52;20.80;99.90
33414;DHT22;60055;41.884;12.534;2022-10-14T08:59:55;21.10;99.90
33414;DHT22;60055;41.884;12.534;2022-10-14T09:03:04;20.90;99.90
33414;DHT22;60055;41.884;12.534;2022-10-14T09:12:10;21.00;99.90
33414;DHT22;60055;41.884;12.534;2022-10-14T09:18:00;21.10;99.90
33414;DHT22;60055;41.884;12.534;2022-10-14T09:20:30;20.90;99.90
33414;DHT22;60055;41.884;12.534;2022-10-14T09:23:17;21.00;99.90
33414;DHT22;60055;41.884;12.534;2022-10-14T09:26:10;21.20;99.90
33414;DHT22;60055;41.884;12.534;2022-10-14T09:28:59;20.80;99.90
33414;DHT22;60055;41.884;12.534;2022-10-14T09:38:17;21.50;99.90
33414;DHT22;60055;41.884;12.534;2022-10-14T09:47:00;21.00;99.90
33414;DHT22;60055;41.884;12.534;2022-10-14T09:56:47;21.50;99.90
33414;DHT22;60055;41.884;12.534;2022-10-14T09:59:26;21.60;99.90
33414;DHT22;60055;41.884;12.534;2022-10-14T10:02:04;21.40;99.90
33414;DHT22;60055;41.884;12.534;2022-10-14T10:08:18;21.40;99.90
33414;DHT22;60055;41.884;12.534;2022-10-14T10:11:05;21.20;99.90
33414;DHT22;60055;41.884;12.534;2022-10-14T10:13:35;21.30;99.90
33414;DHT22;60055;41.884;12.534;2022-10-14T10:16:27;21.20;99.90
33414;DHT22;60055;41.884;12.534;2022-10-14T10:18:56;21.30;99.90
33414;DHT22;60055;41.884;12.534;2022-10-14T10:24:22;21.30;99.90
33414;DHT22;60055;41.884;12.534;2022-10-14T10:26:50;21.30;99.90
33414;DHT22;60055;41.884;12.534;2022-10-14T10:41:50;21.60;99.90
33414;DHT22;60055;41.884;12.534;2022-10-14T10:47:05;21.80;99.90
33414;DHT22;60055;41.884;12.534;2022-10-14T10:50:13;21.70;99.90
33414;DHT22;60055;41.884;12.534;2022-10-14T10:58:51;21.90;99.90
33414;DHT22;60055;41.884;12.534;2022-10-14T11:10:38;22.20;99.90
33414;DHT22;60055;41.884;12.534;2022-10-14T11:31:18;22.50;99.90
33414;DHT22;60055;41.884;12.534;2022-10-14T11:37:01;22.50;99.90
33414;DHT22;60055;41.884;12.534;2022-10-14T11:42:34;22.70;99.90
33414;DHT22;60055;41.884;12.534;2022-10-14T11:48:07;22.90;99.90
33414;DHT22;60055;41.884;12.534;2022-10-14T11:50:54;23.00;99.90
33414;DHT22;60055;41.884;12.534;2022-10-14T11:56:36;22.90;99.90
33414;DHT22;60055;41.884;12.534;2022-10-14T11:59:26;23.00;99.90
33414;DHT22;60055;41.884;12.534;2022-10-14T12:02:22;23.10;99.90
33414;DHT22;60055;41.884;12.534;2022-10-14T12:11:29;23.30;99.90
33414;DHT22;60055;41.884;12.534;2022-10-14T12:16:47;23.50;99.90
33414;DHT22;60055;41.884;12.534;2022-10-14T12:19:25;23.40;99.90
33414;DHT22;60055;41.884;12.534;2022-10-14T12:22:01;23.50;99.90
33414;DHT22;60055;41.884;12.534;2022-10-14T12:24:36;23.60;99.90
33414;DHT22;60055;41.884;12.534;2022-10-14T12:27:12;23.50;99.90
33414;DHT22;60055;41.884;12.534;2022-10-14T12:30:01;23.40;99.90
33414;DHT22;60055;41.884;12.534;2022-10-14T12:38:21;23.60;99.90
33414;DHT22;60055;41.884;12.534;2022-10-14T12:50:41;23.90;99.90
33414;DHT22;60055;41.884;12.534;2022-10-14T12:53:29;24.00;99.90
33414;DHT22;60055;41.884;12.534;2022-10-14T12:56:07;24.10;99.90
33414;DHT22;60055;41.884;12.534;2022-10-14T13:04:56;24.30;99.90
33414;DHT22;60055;41.884;12.534;2022-10-14T13:07:41;24.30;99.90
33414;DHT22;60055;41.884;12.534;2022-10-14T13:10:50;24.40;99.90
33414;DHT22;60055;41.884;12.534;2022-10-14T13:17:26;24.40;99.90
33414;DHT22;60055;41.884;12.534;2022-10-14T13:23:47;24.40;99.90
33414;DHT22;60055;41.884;12.534;2022-10-14T13:36:29;24.20;99.90
33414;DHT22;60055;41.884;12.534;2022-10-14T13:39:08;24.10;99.90
33414;DHT22;60055;41.884;12.534;2022-10-14T13:42:04;24.10;99.90
33414;DHT22;60055;41.884;12.534;2022-10-14T13:45:08;24.00;99.90
33414;DHT22;60055;41.884;12.534;2022-10-14T13:48:02;24.00;99.90
33414;DHT22;60055;41.884;12.534;2022-10-14T13:53:37;23.90;99.90
33414;DHT22;60055;41.884;12.534;2022-10-14T13:56:23;24.00;99.90
33414;DHT22;60055;41.884;12.534;2022-10-14T13:59:01;23.90;99.90
33414;DHT22;60055;41.884;12.534;2022-10-14T14:01:37;23.80;99.90
33414;DHT22;60055;41.884;12.534;2022-10-14T14:04:08;23.90;99.90
33414;DHT22;60055;41.884;12.534;2022-10-14T14:06:45;24.00;99.90
33414;DHT22;60055;41.884;12.534;2022-10-14T14:09:23;23.90;99.90
33414;DHT22;60055;41.884;12.534;2022-10-14T14:11:57;23.90;99.90
33414;DHT22;60055;41.884;12.534;2022-10-14T14:14:43;23.90;99.90
33414;DHT22;60055;41.884;12.534;2022-10-14T14:17:43;23.80;99.90
33414;DHT22;60055;41.884;12.534;2022-10-14T14:23:36;23.60;99.90
33414;DHT22;60055;41.884;12.534;2022-10-14T14:25:55;23.70;99.90
33414;DHT22;60055;41.884;12.534;2022-10-14T14:28:29;23.70;99.90
33414;DHT22;60055;41.884;12.534;2022-10-14T14:30:59;23.60;99.90
33414;DHT22;60055;41.884;12.534;2022-10-14T14:33:40;23.60;99.90
33414;DHT22;60055;41.884;12.534;2022-10-14T14:39:53;23.60;99.90
33414;DHT22;60055;41.884;12.534;2022-10-14T14:42:30;23.60;99.90
33414;DHT22;60055;41.884;12.534;2022-10-14T14:45:03;23.50;99.90
33414;DHT22;60055;41.884;12.534;2022-10-14T14:47:35;23.40;99.90
33414;DHT22;60055;41.884;12.534;2022-10-14T14:50:09;23.40;99.90
33414;DHT22;60055;41.884;12.534;2022-10-14T14:52:36;23.40;99.90
33414;DHT22;60055;41.884;12.534;2022-10-14T14:55:03;23.30;99.90
33414;DHT22;60055;41.884;12.534;2022-10-14T14:57:28;23.20;99.90
33414;DHT22;60055;41.884;12.534;2022-10-14T15:00:00;23.30;99.90
33414;DHT22;60055;41.884;12.534;2022-10-14T15:02:31;23.20;99.90
33414;DHT22;60055;41.884;12.534;2022-10-14T15:05:08;23.30;99.90
33414;DHT22;60055;41.884;12.534;2022-10-14T15:07:34;23.20;99.90
33414;DHT22;60055;41.884;12.534;2022-10-14T15:10:05;23.20;99.90
33414;DHT22;60055;41.884;12.534;2022-10-14T15:12:35;23.10;99.90
33414;DHT22;60055;41.884;12.534;2022-10-14T15:15:32;23.00;99.90
33414;DHT22;60055;41.884;12.534;2022-10-14T15:18:20;23.00;99.90
33414;DHT22;60055;41.884;12.534;2022-10-14T15:21:03;23.00;99.90
33414;DHT22;60055;41.884;12.534;2022-10-14T15:31:36;22.70;99.90
33414;DHT22;60055;41.884;12.534;2022-10-14T15:34:02;22.60;99.90
33414;DHT22;60055;41.884;12.534;2022-10-14T15:36:31;22.60;99.90
33414;DHT22;60055;41.884;12.534;2022-10-14T15:38:57;22.60;99.90
33414;DHT22;60055;41.884;12.534;2022-10-14T15:41:26;22.60;99.90
33414;DHT22;60055;41.884;12.534;2022-10-14T15:43:52;22.60;99.90
33414;DHT22;60055;41.884;12.534;2022-10-14T15:46:18;22.60;99.90
33414;DHT22;60055;41.884;12.534;2022-10-14T15:49:10;22.60;99.90
33414;DHT22;60055;41.884;12.534;2022-10-14T15:51:41;22.70;99.90
33414;DHT22;60055;41.884;12.534;2022-10-14T15:54:27;22.60;99.90
33414;DHT22;60055;41.884;12.534;2022-10-14T15:56:55;22.60;99.90
33414;DHT22;60055;41.884;12.534;2022-10-14T15:59:31;22.60;99.90
33414;DHT22;60055;41.884;12.534;2022-10-14T16:01:59;22.60;99.90
33414;DHT22;60055;41.884;12.534;2022-10-14T16:04:24;22.60;99.90
33414;DHT22;60055;41.884;12.534;2022-10-14T16:06:53;22.60;99.90
33414;DHT22;60055;41.884;12.534;2022-10-14T16:09:20;22.60;99.90
33414;DHT22;60055;41.884;12.534;2022-10-14T16:11:47;22.50;99.90
33414;DHT22;60055;41.884;12.534;2022-10-14T16:14:22;22.50;99.90
33414;DHT22;60055;41.884;12.534;2022-10-14T16:16:48;22.50;99.90
33414;DHT22;60055;41.884;12.534;2022-10-14T16:19:13;22.40;99.90
33414;DHT22;60055;41.884;12.534;2022-10-14T16:21:40;22.40;99.90
33414;DHT22;60055;41.884;12.534;2022-10-14T16:24:09;22.30;99.90
33414;DHT22;60055;41.884;12.534;2022-10-14T16:26:36;22.40;99.90
33414;DHT22;60055;41.884;12.534;2022-10-14T16:29:02;22.30;99.90
33414;DHT22;60055;41.884;12.534;2022-10-14T16:31:29;22.30;99.90
33414;DHT22;60055;41.884;12.534;2022-10-14T16:33:55;22.30;99.90
33414;DHT22;60055;41.884;12.534;2022-10-14T16:36:21;22.30;99.90
33414;DHT22;60055;41.884;12.534;2022-10-14T16:38:47;22.20;99.90
33414;DHT22;60055;41.884;12.534;2022-10-14T16:41:17;22.20;99.90
33414;DHT22;60055;41.884;12.534;2022-10-14T16:43:47;22.20;99.90
33414;DHT22;60055;41.884;12.534;2022-10-14T16:46:13;22.20;99.90
33414;DHT22;60055;41.884;12.534;2022-10-14T16:48:39;22.10;99.90
33414;DHT22;60055;41.884;12.534;2022-10-14T16:51:06;22.10;99.90
33414;DHT22;60055;41.884;12.534;2022-10-14T16:53:32;22.10;99.90
33414;DHT22;60055;41.884;12.534;2022-10-14T16:56:16;22.10;99.90
33414;DHT22;60055;41.884;12.534;2022-10-14T16:59:01;22.10;99.90
33414;DHT22;60055;41.884;12.534;2022-10-14T17:03:24;22.10;99.90
33414;DHT22;60055;41.884;12.534;2022-10-14T17:05:55;22.10;99.90
33414;DHT22;60055;41.884;12.534;2022-10-14T17:08:22;22.10;99.90
33414;DHT22;60055;41.884;12.534;2022-10-14T17:10:47;22.00;99.90
33414;DHT22;60055;41.884;12.534;2022-10-14T17:13:13;21.90;99.90
33414;DHT22;60055;41.884;12.534;2022-10-14T17:15:38;21.90;99.90
33414;DHT22;60055;41.884;12.534;2022-10-14T17:18:04;21.90;99.90
33414;DHT22;60055;41.884;12.534;2022-10-14T17:20:30;21.90;99.90
33414;DHT22;60055;41.884;12.534;2022-10-14T17:23:01;21.80;99.90
33414;DHT22;60055;41.884;12.534;2022-10-14T17:25:30;21.80;99.90
33414;DHT22;60055;41.884;12.534;2022-10-14T17:27:59;21.80;99.90
33414;DHT22;60055;41.884;12.534;2022-10-14T17:30:26;21.90;99.90
33414;DHT22;60055;41.884;12.534;2022-10-14T17:32:52;21.80;99.90
33414;DHT22;60055;41.884;12.534;2022-10-14T17:35:19;21.70;99.90
33414;DHT22;60055;41.884;12.534;2022-10-14T17:37:47;21.80;99.90
33414;DHT22;60055;41.884;12.534;2022-10-14T17:40:16;21.80;99.90
33414;DHT22;60055;41.884;12.534;2022-10-14T17:42:44;21.70;99.90
33414;DHT22;60055;41.884;12.534;2022-10-14T17:45:10;21.70;99.90
33414;DHT22;60055;41.884;12.534;2022-10-14T17:47:37;21.60;99.90
33414;DHT22;60055;41.884;12.534;2022-10-14T17:50:05;21.60;99.90
33414;DHT22;60055;41.884;12.534;2022-10-14T17:52:33;21.60;99.90
33414;DHT22;60055;41.884;12.534;2022-10-14T17:55:01;21.50;99.90
33414;DHT22;60055;41.884;12.534;2022-10-14T17:57:40;21.40;99.90
33414;DHT22;60055;41.884;12.534;2022-10-14T18:00:08;21.20;99.90
33414;DHT22;60055;41.884;12.534;2022-10-14T18:02:37;21.20;99.90
33414;DHT22;60055;41.884;12.534;2022-10-14T18:05:04;21.10;99.90
33414;DHT22;60055;41.884;12.534;2022-10-14T18:07:30;21.00;99.90
33414;DHT22;60055;41.884;12.534;2022-10-14T18:09:55;21.00;99.90
33414;DHT22;60055;41.884;12.534;2022-10-14T18:12:21;21.00;99.90
33414;DHT22;60055;41.884;12.534;2022-10-14T18:14:48;21.40;99.90
33414;DHT22;60055;41.884;12.534;2022-10-14T18:17:15;21.60;99.90
33414;DHT22;60055;41.884;12.534;2022-10-14T18:19:41;21.60;99.90
33414;DHT22;60055;41.884;12.534;2022-10-14T18:22:07;21.40;99.90
33414;DHT22;60055;41.884;12.534;2022-10-14T18:24:33;21.40;99.90
33414;DHT22;60055;41.884;12.534;2022-10-14T18:27:02;21.30;99.90
33414;DHT22;60055;41.884;12.534;2022-10-14T18:29:29;21.30;99.90
33414;DHT22;60055;41.884;12.534;2022-10-14T18:31:55;21.20;99.90
33414;DHT22;60055;41.884;12.534;2022-10-14T18:34:20;21.20;99.90
33414;DHT22;60055;41.884;12.534;2022-10-14T18:36:51;21.00;99.90
33414;DHT22;60055;41.884;12.534;2022-10-14T18:39:17;21.00;99.90
33414;DHT22;60055;41.884;12.534;2022-10-14T18:41:44;21.00;99.90
33414;DHT22;60055;41.884;12.534;2022-10-14T18:44:10;20.90;99.90
33414;DHT22;60055;41.884;12.534;2022-10-14T18:46:37;20.90;99.90
33414;DHT22;60055;41.884;12.534;2022-10-14T18:49:05;20.90;99.90
33414;DHT22;60055;41.884;12.534;2022-10-14T18:51:37;20.80;99.90
33414;DHT22;60055;41.884;12.534;2022-10-14T18:54:09;20.70;99.90
33414;DHT22;60055;41.884;12.534;2022-10-14T18:56:36;20.70;99.90
33414;DHT22;60055;41.884;12.534;2022-10-14T18:59:09;20.70;99.90
33414;DHT22;60055;41.884;12.534;2022-10-14T19:01:36;20.60;99.90
33414;DHT22;60055;41.884;12.534;2022-10-14T19:04:02;20.60;99.90
33414;DHT22;60055;41.884;12.534;2022-10-14T19:06:30;20.60;99.90
33414;DHT22;60055;41.884;12.534;2022-10-14T19:08:57;20.70;99.90
33414;DHT22;60055;41.884;12.534;2022-10-14T19:11:26;20.70;99.90
33414;DHT22;60055;41.884;12.534;2022-10-14T19:13:54;20.60;99.90
33414;DHT22;60055;41.884;12.534;2022-10-14T19:16:28;20.70;99.90
33414;DHT22;60055;41.884;12.534;2022-10-14T19:19:00;20.70;99.90
33414;DHT22;60055;41.884;12.534;2022-10-14T19:21:28;20.70;99.90
33414;DHT22;60055;41.884;12.534;2022-10-14T19:23:56;20.60;99.90
33414;DHT22;60055;41.884;12.534;2022-10-14T19:26:25;20.60;99.90
33414;DHT22;60055;41.884;12.534;2022-10-14T19:28:52;20.70;99.90